sensor_id;sensor_type;location;lat;lon;timestamp;P1;durP1;ratioP1;P2;durP2;ratioP2
77076;SDS011;66003;52.286;104.306;2024-01-07T04:47:47;3.45;;;2.97;;
77076;SDS011;66003;52.286;104.306;2024-01-07T04:50:14;4.90;;;3.58;;
77076;SDS011;66003;52.286;104.306;2024-01-07T04:52:40;3.58;;;3.38;;
77076;SDS011;66003;52.286;104.306;2024-01-07T04:55:06;5.80;;;2.35;;
77076;SDS011;66003;52.286;104.306;2024-01-07T04:57:34;4.53;;;2.80;;
77076;SDS011;66003;52.286;104.306;2024-01-07T05:00:01;3.92;;;2.78;;
77076;SDS011;66003;52.286;104.306;2024-01-07T05:02:29;2.20;;;1.77;;
77076;SDS011;66003;52.286;104.306;2024-01-07T05:04:55;9.60;;;4.43;;
77076;SDS011;66003;52.286;104.306;2024-01-07T05:07:21;3.63;;;3.17;;
77076;SDS011;66003;52.286;104.306;2024-01-07T05:09:47;2.50;;;2.20;;
77076;SDS011;66003;52.286;104.306;2024-01-07T05:12:13;6.78;;;3.97;;
77076;SDS011;66003;52.286;104.306;2024-01-07T05:14:40;1.13;;;1.13;;
77076;SDS011;66003;52.286;104.306;2024-01-07T05:17:08;7.72;;;4.18;;
77076;SDS011;66003;52.286;104.306;2024-01-07T05:19:34;12.30;;;5.63;;
77076;SDS011;66003;52.286;104.306;2024-01-07T05:22:01;7.13;;;3.47;;
77076;SDS011;66003;52.286;104.306;2024-01-07T05:24:27;9.15;;;2.80;;
77076;SDS011;66003;52.286;104.306;2024-01-07T05:26:53;8.70;;;4.78;;
77076;SDS011;66003;52.286;104.306;2024-01-07T05:29:20;4.88;;;2.33;;
77076;SDS011;66003;52.286;104.306;2024-01-07T05:31:46;5.32;;;2.38;;
77076;SDS011;66003;52.286;104.306;2024-01-07T05:34:12;5.05;;;2.75;;
77076;SDS011;66003;52.286;104.306;2024-01-07T05:36:38;11.48;;;5.63;;
77076;SDS011;66003;52.286;104.306;2024-01-07T05:39:05;3.30;;;3.00;;
77076;SDS011;66003;52.286;104.306;2024-01-07T05:41:32;7.70;;;4.45;;
77076;SDS011;66003;52.286;104.306;2024-01-07T05:43:58;3.75;;;1.88;;
77076;SDS011;66003;52.286;104.306;2024-01-07T05:46:24;5.20;;;1.85;;
77076;SDS011;66003;52.286;104.306;2024-01-07T05:48:50;2.17;;;2.00;;
77076;SDS011;66003;52.286;104.306;2024-01-07T05:51:18;5.28;;;3.05;;
77076;SDS011;66003;52.286;104.306;2024-01-07T05:53:44;8.98;;;1.65;;
77076;SDS011;66003;52.286;104.306;2024-01-07T05:56:11;8.00;;;3.83;;
77076;SDS011;66003;52.286;104.306;2024-01-07T05:58:37;11.40;;;4.05;;
77076;SDS011;66003;52.286;104.306;2024-01-07T06:01:03;9.75;;;4.43;;
77076;SDS011;66003;52.286;104.306;2024-01-07T06:03:30;4.10;;;3.70;;
77076;SDS011;66003;52.286;104.306;2024-01-07T06:05:57;8.70;;;4.13;;
77076;SDS011;66003;52.286;104.306;2024-01-07T06:08:23;15.13;;;4.85;;
77076;SDS011;66003;52.286;104.306;2024-01-07T06:10:50;14.52;;;5.78;;
77076;SDS011;66003;52.286;104.306;2024-01-07T06:13:16;4.47;;;2.60;;
77076;SDS011;66003;52.286;104.306;2024-01-07T06:15:42;17.02;;;6.80;;
77076;SDS011;66003;52.286;104.306;2024-01-07T06:18:08;17.92;;;8.23;;
77076;SDS011;66003;52.286;104.306;2024-01-07T06:20:34;13.18;;;6.47;;
77076;SDS011;66003;52.286;104.306;2024-01-07T06:23:00;13.68;;;6.30;;
77076;SDS011;66003;52.286;104.306;2024-01-07T06:25:26;15.80;;;8.55;;
77076;SDS011;66003;52.286;104.306;2024-01-07T06:27:52;20.52;;;8.18;;
77076;SDS011;66003;52.286;104.306;2024-01-07T06:30:18;10.40;;;5.30;;
77076;SDS011;66003;52.286;104.306;2024-01-07T06:32:45;14.02;;;7.03;;
77076;SDS011;66003;52.286;104.306;2024-01-07T06:35:11;11.05;;;5.70;;
77076;SDS011;66003;52.286;104.306;2024-01-07T06:37:37;8.35;;;5.53;;
77076;SDS011;66003;52.286;104.306;2024-01-07T06:40:03;13.10;;;7.40;;
77076;SDS011;66003;52.286;104.306;2024-01-07T06:42:30;17.88;;;7.72;;
77076;SDS011;66003;52.286;104.306;2024-01-07T06:44:56;24.58;;;10.38;;
77076;SDS011;66003;52.286;104.306;2024-01-07T06:47:22;25.52;;;11.52;;
77076;SDS011;66003;52.286;104.306;2024-01-07T06:49:48;24.27;;;11.18;;
77076;SDS011;66003;52.286;104.306;2024-01-07T06:52:14;35.97;;;18.17;;
77076;SDS011;66003;52.286;104.306;2024-01-07T06:54:40;18.52;;;10.55;;
77076;SDS011;66003;52.286;104.306;2024-01-07T06:57:07;29.92;;;14.60;;
77076;SDS011;66003;52.286;104.306;2024-01-07T06:59:33;16.58;;;8.32;;
77076;SDS011;66003;52.286;104.306;2024-01-07T07:01:59;24.20;;;10.32;;
77076;SDS011;66003;52.286;104.306;2024-01-07T07:04:25;22.17;;;9.38;;
77076;SDS011;66003;52.286;104.306;2024-01-07T07:06:51;16.50;;;9.10;;
77076;SDS011;66003;52.286;104.306;2024-01-07T07:09:17;16.13;;;7.47;;
77076;SDS011;66003;52.286;104.306;2024-01-07T07:11:44;8.88;;;4.15;;
77076;SDS011;66003;52.286;104.306;2024-01-07T07:14:10;13.05;;;5.93;;
77076;SDS011;66003;52.286;104.306;2024-01-07T07:16:36;8.73;;;4.13;;
77076;SDS011;66003;52.286;104.306;2024-01-07T07:19:02;25.65;;;9.55;;
77076;SDS011;66003;52.286;104.306;2024-01-07T07:21:28;19.13;;;9.07;;
77076;SDS011;66003;52.286;104.306;2024-01-07T07:23:54;17.27;;;9.73;;
77076;SDS011;66003;52.286;104.306;2024-01-07T07:26:20;19.63;;;8.50;;
77076;SDS011;66003;52.286;104.306;2024-01-07T07:28:47;12.73;;;6.03;;
77076;SDS011;66003;52.286;104.306;2024-01-07T07:31:13;15.40;;;6.20;;
77076;SDS011;66003;52.286;104.306;2024-01-07T07:33:39;6.50;;;3.60;;
77076;SDS011;66003;52.286;104.306;2024-01-07T07:36:06;9.60;;;4.15;;
77076;SDS011;66003;52.286;104.306;2024-01-07T07:38:32;11.75;;;5.90;;
77076;SDS011;66003;52.286;104.306;2024-01-07T07:40:59;2.92;;;2.20;;
77076;SDS011;66003;52.286;104.306;2024-01-07T07:43:26;6.25;;;3.53;;
77076;SDS011;66003;52.286;104.306;2024-01-07T07:45:52;11.55;;;5.90;;
77076;SDS011;66003;52.286;104.306;2024-01-07T07:48:18;10.77;;;4.18;;
77076;SDS011;66003;52.286;104.306;2024-01-07T07:50:44;10.15;;;5.50;;
77076;SDS011;66003;52.286;104.306;2024-01-07T07:53:11;16.55;;;5.43;;
77076;SDS011;66003;52.286;104.306;2024-01-07T07:55:37;11.70;;;6.22;;
77076;SDS011;66003;52.286;104.306;2024-01-07T07:58:03;9.18;;;6.15;;
77076;SDS011;66003;52.286;104.306;2024-01-07T08:00:29;17.00;;;6.85;;
77076;SDS011;66003;52.286;104.306;2024-01-07T08:02:55;14.98;;;6.03;;
77076;SDS011;66003;52.286;104.306;2024-01-07T08:05:21;9.52;;;4.95;;
77076;SDS011;66003;52.286;104.306;2024-01-07T08:07:47;8.43;;;5.90;;
77076;SDS011;66003;52.286;104.306;2024-01-07T08:10:13;9.52;;;5.55;;
77076;SDS011;66003;52.286;104.306;2024-01-07T08:12:40;13.95;;;7.43;;
77076;SDS011;66003;52.286;104.306;2024-01-07T08:15:06;12.13;;;4.03;;
77076;SDS011;66003;52.286;104.306;2024-01-07T08:17:32;16.67;;;8.13;;
77076;SDS011;66003;52.286;104.306;2024-01-07T08:19:59;10.93;;;6.68;;
77076;SDS011;66003;52.286;104.306;2024-01-07T08:22:26;14.88;;;7.32;;
77076;SDS011;66003;52.286;104.306;2024-01-07T08:24:52;17.58;;;10.13;;
77076;SDS011;66003;52.286;104.306;2024-01-07T08:27:19;17.00;;;10.07;;
77076;SDS011;66003;52.286;104.306;2024-01-07T08:29:45;22.05;;;8.60;;
77076;SDS011;66003;52.286;104.306;2024-01-07T08:32:12;14.38;;;6.13;;
77076;SDS011;66003;52.286;104.306;2024-01-07T08:34:38;8.07;;;4.93;;
77076;SDS011;66003;52.286;104.306;2024-01-07T08:37:05;14.10;;;7.65;;
77076;SDS011;66003;52.286;104.306;2024-01-07T08:39:32;11.98;;;6.43;;
77076;SDS011;66003;52.286;104.306;2024-01-07T08:41:58;18.05;;;5.38;;
77076;SDS011;66003;52.286;104.306;2024-01-07T08:44:24;11.65;;;3.53;;
77076;SDS011;66003;52.286;104.306;2024-01-07T08:46:50;8.45;;;4.75;;
77076;SDS011;66003;52.286;104.306;2024-01-07T08:49:16;9.73;;;4.00;;
77076;SDS011;66003;52.286;104.306;2024-01-07T08:51:43;3.22;;;1.65;;
77076;SDS011;66003;52.286;104.306;2024-01-07T08:54:09;6.32;;;4.18;;
77076;SDS011;66003;52.286;104.306;2024-01-07T08:56:35;9.10;;;3.40;;
77076;SDS011;66003;52.286;104.306;2024-01-07T08:59:01;10.43;;;3.67;;
77076;SDS011;66003;52.286;104.306;2024-01-07T09:01:29;3.97;;;3.58;;
77076;SDS011;66003;52.286;104.306;2024-01-07T09:03:55;6.70;;;3.65;;
77076;SDS011;66003;52.286;104.306;2024-01-07T09:06:22;9.60;;;5.78;;
77076;SDS011;66003;52.286;104.306;2024-01-07T09:08:48;1.98;;;1.88;;
77076;SDS011;66003;52.286;104.306;2024-01-07T09:11:14;11.32;;;3.25;;
77076;SDS011;66003;52.286;104.306;2024-01-07T09:13:41;4.25;;;2.95;;
77076;SDS011;66003;52.286;104.306;2024-01-07T09:16:07;8.43;;;4.45;;
77076;SDS011;66003;52.286;104.306;2024-01-07T09:18:36;5.65;;;2.85;;
77076;SDS011;66003;52.286;104.306;2024-01-07T09:21:03;6.97;;;4.03;;
77076;SDS011;66003;52.286;104.306;2024-01-07T09:23:29;3.05;;;2.55;;
77076;SDS011;66003;52.286;104.306;2024-01-07T09:25:55;10.15;;;3.15;;
77076;SDS011;66003;52.286;104.306;2024-01-07T09:28:21;4.07;;;2.38;;
77076;SDS011;66003;52.286;104.306;2024-01-07T09:30:47;6.65;;;3.30;;
77076;SDS011;66003;52.286;104.306;2024-01-07T09:33:13;3.20;;;2.17;;
77076;SDS011;66003;52.286;104.306;2024-01-07T09:35:40;3.33;;;1.77;;
77076;SDS011;66003;52.286;104.306;2024-01-07T09:38:07;4.88;;;3.47;;
77076;SDS011;66003;52.286;104.306;2024-01-07T09:40:33;11.20;;;3.45;;
77076;SDS011;66003;52.286;104.306;2024-01-07T09:42:59;8.85;;;3.92;;
77076;SDS011;66003;52.286;104.306;2024-01-07T09:45:25;8.52;;;3.15;;
77076;SDS011;66003;52.286;104.306;2024-01-07T09:47:54;6.50;;;2.88;;
77076;SDS011;66003;52.286;104.306;2024-01-07T09:50:20;11.40;;;5.78;;
77076;SDS011;66003;52.286;104.306;2024-01-07T09:52:47;9.27;;;3.42;;
77076;SDS011;66003;52.286;104.306;2024-01-07T09:55:20;9.95;;;4.20;;
77076;SDS011;66003;52.286;104.306;2024-01-07T09:57:53;10.23;;;4.82;;
77076;SDS011;66003;52.286;104.306;2024-01-07T10:00:19;10.98;;;4.05;;
77076;SDS011;66003;52.286;104.306;2024-01-07T10:02:46;0.68;;;0.68;;
77076;SDS011;66003;52.286;104.306;2024-01-07T10:05:12;6.22;;;3.38;;
77076;SDS011;66003;52.286;104.306;2024-01-07T10:07:38;2.95;;;2.63;;
77076;SDS011;66003;52.286;104.306;2024-01-07T10:10:14;7.30;;;3.80;;
77076;SDS011;66003;52.286;104.306;2024-01-07T10:12:41;10.60;;;4.65;;
77076;SDS011;66003;52.286;104.306;2024-01-07T10:15:08;6.00;;;2.80;;
77076;SDS011;66003;52.286;104.306;2024-01-07T10:17:34;8.13;;;5.05;;
77076;SDS011;66003;52.286;104.306;2024-01-07T10:20:00;6.85;;;3.63;;
77076;SDS011;66003;52.286;104.306;2024-01-07T10:22:28;9.13;;;4.30;;
77076;SDS011;66003;52.286;104.306;2024-01-07T10:24:55;7.20;;;3.88;;
77076;SDS011;66003;52.286;104.306;2024-01-07T10:27:22;8.23;;;4.22;;
77076;SDS011;66003;52.286;104.306;2024-01-07T10:29:48;7.65;;;4.80;;
77076;SDS011;66003;52.286;104.306;2024-01-07T10:32:17;5.85;;;3.45;;
77076;SDS011;66003;52.286;104.306;2024-01-07T10:34:45;6.57;;;3.28;;
77076;SDS011;66003;52.286;104.306;2024-01-07T10:37:15;5.00;;;3.60;;
77076;SDS011;66003;52.286;104.306;2024-01-07T10:39:41;6.47;;;4.70;;
77076;SDS011;66003;52.286;104.306;2024-01-07T10:42:07;7.95;;;4.78;;
77076;SDS011;66003;52.286;104.306;2024-01-07T10:44:35;7.72;;;4.43;;
77076;SDS011;66003;52.286;104.306;2024-01-07T10:47:01;10.45;;;4.95;;
77076;SDS011;66003;52.286;104.306;2024-01-07T10:49:33;7.55;;;3.53;;
77076;SDS011;66003;52.286;104.306;2024-01-07T10:52:03;7.97;;;5.03;;
77076;SDS011;66003;52.286;104.306;2024-01-07T10:57:00;5.65;;;3.80;;
77076;SDS011;66003;52.286;104.306;2024-01-07T10:59:37;7.25;;;3.67;;
77076;SDS011;66003;52.286;104.306;2024-01-07T11:02:04;9.18;;;4.57;;
77076;SDS011;66003;52.286;104.306;2024-01-07T11:04:51;6.78;;;4.40;;
77076;SDS011;66003;52.286;104.306;2024-01-07T11:10:05;9.95;;;4.18;;
77076;SDS011;66003;52.286;104.306;2024-01-07T11:12:34;9.40;;;4.20;;
77076;SDS011;66003;52.286;104.306;2024-01-07T11:15:01;6.97;;;3.53;;
77076;SDS011;66003;52.286;104.306;2024-01-07T11:20:06;11.82;;;4.03;;
77076;SDS011;66003;52.286;104.306;2024-01-07T11:22:37;10.50;;;4.65;;
77076;SDS011;66003;52.286;104.306;2024-01-07T11:25:20;8.13;;;4.13;;
77076;SDS011;66003;52.286;104.306;2024-01-07T11:28:04;11.85;;;4.35;;
77076;SDS011;66003;52.286;104.306;2024-01-07T11:30:31;11.68;;;5.60;;
77076;SDS011;66003;52.286;104.306;2024-01-07T11:33:05;5.93;;;3.75;;
77076;SDS011;66003;52.286;104.306;2024-01-07T11:38:24;7.57;;;4.20;;
77076;SDS011;66003;52.286;104.306;2024-01-07T11:40:51;9.68;;;5.18;;
77076;SDS011;66003;52.286;104.306;2024-01-07T11:43:17;10.30;;;4.07;;
77076;SDS011;66003;52.286;104.306;2024-01-07T11:45:44;14.32;;;5.10;;
77076;SDS011;66003;52.286;104.306;2024-01-07T11:48:11;7.28;;;4.05;;
77076;SDS011;66003;52.286;104.306;2024-01-07T11:50:37;9.52;;;4.97;;
77076;SDS011;66003;52.286;104.306;2024-01-07T11:53:03;6.38;;;4.55;;
77076;SDS011;66003;52.286;104.306;2024-01-07T11:55:30;5.43;;;3.45;;
77076;SDS011;66003;52.286;104.306;2024-01-07T12:00:26;12.80;;;3.22;;
77076;SDS011;66003;52.286;104.306;2024-01-07T12:02:52;9.55;;;5.22;;
77076;SDS011;66003;52.286;104.306;2024-01-07T12:05:18;7.15;;;3.40;;
77076;SDS011;66003;52.286;104.306;2024-01-07T12:07:44;7.68;;;4.40;;
77076;SDS011;66003;52.286;104.306;2024-01-07T12:10:10;7.72;;;3.75;;
77076;SDS011;66003;52.286;104.306;2024-01-07T12:12:39;7.32;;;2.95;;
77076;SDS011;66003;52.286;104.306;2024-01-07T12:15:07;7.47;;;3.72;;
77076;SDS011;66003;52.286;104.306;2024-01-07T12:17:34;7.75;;;4.50;;
77076;SDS011;66003;52.286;104.306;2024-01-07T12:20:00;6.18;;;4.35;;
77076;SDS011;66003;52.286;104.306;2024-01-07T12:22:30;9.18;;;3.78;;
77076;SDS011;66003;52.286;104.306;2024-01-07T12:25:00;9.45;;;4.20;;
77076;SDS011;66003;52.286;104.306;2024-01-07T12:27:28;9.05;;;3.90;;
77076;SDS011;66003;52.286;104.306;2024-01-07T12:29:58;15.10;;;5.47;;
77076;SDS011;66003;52.286;104.306;2024-01-07T12:32:28;11.93;;;4.63;;
77076;SDS011;66003;52.286;104.306;2024-01-07T12:34:57;12.93;;;5.68;;
77076;SDS011;66003;52.286;104.306;2024-01-07T12:37:27;10.52;;;4.93;;
77076;SDS011;66003;52.286;104.306;2024-01-07T12:39:54;9.55;;;5.30;;
77076;SDS011;66003;52.286;104.306;2024-01-07T12:42:20;14.43;;;6.03;;
77076;SDS011;66003;52.286;104.306;2024-01-07T12:44:47;10.18;;;5.18;;
77076;SDS011;66003;52.286;104.306;2024-01-07T12:47:14;15.00;;;6.03;;
77076;SDS011;66003;52.286;104.306;2024-01-07T12:49:41;9.60;;;6.95;;
77076;SDS011;66003;52.286;104.306;2024-01-07T12:52:07;12.18;;;6.10;;
77076;SDS011;66003;52.286;104.306;2024-01-07T12:54:34;11.82;;;7.43;;
77076;SDS011;66003;52.286;104.306;2024-01-07T12:57:00;13.35;;;5.93;;
77076;SDS011;66003;52.286;104.306;2024-01-07T12:59:27;12.55;;;6.20;;
77076;SDS011;66003;52.286;104.306;2024-01-07T13:01:53;17.23;;;8.68;;
77076;SDS011;66003;52.286;104.306;2024-01-07T13:04:19;13.23;;;5.97;;
77076;SDS011;66003;52.286;104.306;2024-01-07T13:06:45;12.68;;;5.85;;
77076;SDS011;66003;52.286;104.306;2024-01-07T13:09:12;12.38;;;6.60;;
77076;SDS011;66003;52.286;104.306;2024-01-07T13:11:38;11.80;;;7.05;;
77076;SDS011;66003;52.286;104.306;2024-01-07T13:14:04;17.15;;;6.53;;
77076;SDS011;66003;52.286;104.306;2024-01-07T13:16:31;13.10;;;5.65;;
77076;SDS011;66003;52.286;104.306;2024-01-07T13:18:57;17.13;;;5.25;;
77076;SDS011;66003;52.286;104.306;2024-01-07T13:21:24;19.25;;;6.13;;
77076;SDS011;66003;52.286;104.306;2024-01-07T13:23:50;14.88;;;7.80;;
77076;SDS011;66003;52.286;104.306;2024-01-07T13:26:16;13.27;;;5.68;;
77076;SDS011;66003;52.286;104.306;2024-01-07T13:28:42;13.73;;;5.75;;
77076;SDS011;66003;52.286;104.306;2024-01-07T13:31:08;13.32;;;5.03;;
77076;SDS011;66003;52.286;104.306;2024-01-07T13:33:37;14.98;;;6.57;;
77076;SDS011;66003;52.286;104.306;2024-01-07T13:36:03;16.50;;;5.15;;
77076;SDS011;66003;52.286;104.306;2024-01-07T13:38:34;10.98;;;4.68;;
77076;SDS011;66003;52.286;104.306;2024-01-07T13:41:01;8.93;;;5.28;;
77076;SDS011;66003;52.286;104.306;2024-01-07T13:43:27;12.52;;;5.38;;
77076;SDS011;66003;52.286;104.306;2024-01-07T13:45:55;12.65;;;5.95;;
77076;SDS011;66003;52.286;104.306;2024-01-07T13:48:21;14.52;;;5.50;;
77076;SDS011;66003;52.286;104.306;2024-01-07T13:50:47;11.73;;;4.43;;
77076;SDS011;66003;52.286;104.306;2024-01-07T13:53:15;11.13;;;4.13;;
77076;SDS011;66003;52.286;104.306;2024-01-07T13:55:41;8.90;;;5.82;;
77076;SDS011;66003;52.286;104.306;2024-01-07T13:58:07;10.45;;;5.53;;
77076;SDS011;66003;52.286;104.306;2024-01-07T14:00:33;18.50;;;6.70;;
77076;SDS011;66003;52.286;104.306;2024-01-07T14:02:59;9.75;;;4.57;;
77076;SDS011;66003;52.286;104.306;2024-01-07T14:05:25;7.82;;;4.50;;
77076;SDS011;66003;52.286;104.306;2024-01-07T14:07:52;14.10;;;3.97;;
77076;SDS011;66003;52.286;104.306;2024-01-07T14:10:18;12.77;;;6.80;;
77076;SDS011;66003;52.286;104.306;2024-01-07T14:12:45;19.55;;;9.55;;
77076;SDS011;66003;52.286;104.306;2024-01-07T14:15:11;28.13;;;15.48;;
77076;SDS011;66003;52.286;104.306;2024-01-07T14:17:37;21.73;;;8.52;;
77076;SDS011;66003;52.286;104.306;2024-01-07T14:20:05;8.32;;;3.78;;
77076;SDS011;66003;52.286;104.306;2024-01-07T14:22:33;17.77;;;7.32;;
77076;SDS011;66003;52.286;104.306;2024-01-07T14:24:59;24.65;;;10.70;;
77076;SDS011;66003;52.286;104.306;2024-01-07T14:27:26;31.55;;;11.70;;
77076;SDS011;66003;52.286;104.306;2024-01-07T14:29:52;23.67;;;6.88;;
77076;SDS011;66003;52.286;104.306;2024-01-07T14:32:18;32.75;;;12.10;;
77076;SDS011;66003;52.286;104.306;2024-01-07T14:34:44;20.70;;;10.95;;
77076;SDS011;66003;52.286;104.306;2024-01-07T14:37:11;29.10;;;11.90;;
77076;SDS011;66003;52.286;104.306;2024-01-07T14:39:37;42.20;;;17.98;;
77076;SDS011;66003;52.286;104.306;2024-01-07T14:42:03;23.67;;;9.68;;
77076;SDS011;66003;52.286;104.306;2024-01-07T14:44:30;26.00;;;12.00;;
77076;SDS011;66003;52.286;104.306;2024-01-07T14:46:56;4.57;;;4.18;;
77076;SDS011;66003;52.286;104.306;2024-01-07T14:49:22;8.10;;;7.22;;
77076;SDS011;66003;52.286;104.306;2024-01-07T14:51:48;14.32;;;7.10;;
77076;SDS011;66003;52.286;104.306;2024-01-07T14:54:14;18.67;;;11.52;;
77076;SDS011;66003;52.286;104.306;2024-01-07T14:56:41;18.08;;;10.32;;
77076;SDS011;66003;52.286;104.306;2024-01-07T14:59:08;15.15;;;9.15;;
77076;SDS011;66003;52.286;104.306;2024-01-07T15:01:34;16.55;;;8.57;;
77076;SDS011;66003;52.286;104.306;2024-01-07T15:04:01;19.48;;;8.63;;
77076;SDS011;66003;52.286;104.306;2024-01-07T15:06:27;6.82;;;6.20;;
77076;SDS011;66003;52.286;104.306;2024-01-07T15:08:53;9.82;;;5.25;;
77076;SDS011;66003;52.286;104.306;2024-01-07T15:11:19;6.88;;;5.50;;
77076;SDS011;66003;52.286;104.306;2024-01-07T15:13:47;8.68;;;6.68;;
77076;SDS011;66003;52.286;104.306;2024-01-07T15:16:13;3.97;;;3.60;;
77076;SDS011;66003;52.286;104.306;2024-01-07T15:18:39;5.35;;;2.55;;
77076;SDS011;66003;52.286;104.306;2024-01-07T15:21:05;10.73;;;6.95;;
77076;SDS011;66003;52.286;104.306;2024-01-07T15:23:31;11.48;;;7.22;;
77076;SDS011;66003;52.286;104.306;2024-01-07T15:25:57;33.25;;;15.30;;
77076;SDS011;66003;52.286;104.306;2024-01-07T15:28:24;16.30;;;7.38;;
77076;SDS011;66003;52.286;104.306;2024-01-07T15:30:50;14.63;;;8.60;;
77076;SDS011;66003;52.286;104.306;2024-01-07T15:33:16;17.05;;;7.22;;
77076;SDS011;66003;52.286;104.306;2024-01-07T15:35:43;10.63;;;6.80;;
77076;SDS011;66003;52.286;104.306;2024-01-07T15:38:09;13.40;;;6.10;;
77076;SDS011;66003;52.286;104.306;2024-01-07T15:40:36;13.00;;;6.30;;
77076;SDS011;66003;52.286;104.306;2024-01-07T15:43:02;8.35;;;3.38;;
77076;SDS011;66003;52.286;104.306;2024-01-07T15:45:28;14.90;;;5.82;;
77076;SDS011;66003;52.286;104.306;2024-01-07T15:47:54;11.23;;;4.60;;
77076;SDS011;66003;52.286;104.306;2024-01-07T15:50:21;8.13;;;4.00;;
77076;SDS011;66003;52.286;104.306;2024-01-07T15:52:47;2.25;;;2.05;;
77076;SDS011;66003;52.286;104.306;2024-01-07T15:55:14;1.23;;;1.23;;
77076;SDS011;66003;52.286;104.306;2024-01-07T15:57:41;13.15;;;5.35;;
77076;SDS011;66003;52.286;104.306;2024-01-07T16:00:10;9.00;;;4.80;;
77076;SDS011;66003;52.286;104.306;2024-01-07T16:02:37;11.15;;;5.28;;
77076;SDS011;66003;52.286;104.306;2024-01-07T16:05:04;6.00;;;4.30;;
77076;SDS011;66003;52.286;104.306;2024-01-07T16:07:30;10.70;;;4.68;;
77076;SDS011;66003;52.286;104.306;2024-01-07T16:09:56;9.88;;;4.20;;
77076;SDS011;66003;52.286;104.306;2024-01-07T16:12:23;11.57;;;4.90;;
77076;SDS011;66003;52.286;104.306;2024-01-07T16:14:49;6.65;;;3.38;;
77076;SDS011;66003;52.286;104.306;2024-01-07T16:17:15;17.25;;;6.97;;
77076;SDS011;66003;52.286;104.306;2024-01-07T16:19:41;9.90;;;5.40;;
77076;SDS011;66003;52.286;104.306;2024-01-07T16:22:07;13.63;;;6.00;;
77076;SDS011;66003;52.286;104.306;2024-01-07T16:24:38;19.83;;;5.60;;
77076;SDS011;66003;52.286;104.306;2024-01-07T16:27:06;12.07;;;6.38;;
77076;SDS011;66003;52.286;104.306;2024-01-07T16:29:35;17.13;;;6.78;;
77076;SDS011;66003;52.286;104.306;2024-01-07T16:32:02;9.90;;;4.78;;
77076;SDS011;66003;52.286;104.306;2024-01-07T16:34:29;9.20;;;5.55;;
77076;SDS011;66003;52.286;104.306;2024-01-07T16:36:55;6.50;;;5.35;;
77076;SDS011;66003;52.286;104.306;2024-01-07T16:39:21;8.52;;;5.32;;
77076;SDS011;66003;52.286;104.306;2024-01-07T16:41:49;14.05;;;6.50;;
77076;SDS011;66003;52.286;104.306;2024-01-07T16:44:23;10.07;;;5.97;;
77076;SDS011;66003;52.286;104.306;2024-01-07T16:46:50;4.80;;;3.40;;
77076;SDS011;66003;52.286;104.306;2024-01-07T16:49:17;12.13;;;5.70;;
77076;SDS011;66003;52.286;104.306;2024-01-07T16:51:43;7.32;;;4.88;;
77076;SDS011;66003;52.286;104.306;2024-01-07T16:54:10;10.02;;;5.55;;
77076;SDS011;66003;52.286;104.306;2024-01-07T16:56:36;13.80;;;6.72;;
77076;SDS011;66003;52.286;104.306;2024-01-07T16:59:02;3.30;;;2.00;;
77076;SDS011;66003;52.286;104.306;2024-01-07T17:01:28;5.13;;;3.90;;
77076;SDS011;66003;52.286;104.306;2024-01-07T17:03:54;5.82;;;3.30;;
77076;SDS011;66003;52.286;104.306;2024-01-07T17:06:22;20.33;;;6.95;;
77076;SDS011;66003;52.286;104.306;2024-01-07T17:08:49;10.75;;;5.15;;
77076;SDS011;66003;52.286;104.306;2024-01-07T17:11:15;12.25;;;5.03;;
77076;SDS011;66003;52.286;104.306;2024-01-07T17:13:41;16.55;;;8.43;;
77076;SDS011;66003;52.286;104.306;2024-01-07T17:16:07;10.77;;;6.63;;
77076;SDS011;66003;52.286;104.306;2024-01-07T17:18:34;4.35;;;3.63;;
77076;SDS011;66003;52.286;104.306;2024-01-07T17:21:00;8.13;;;4.85;;
77076;SDS011;66003;52.286;104.306;2024-01-07T17:23:26;12.77;;;6.95;;
77076;SDS011;66003;52.286;104.306;2024-01-07T17:25:52;20.38;;;8.00;;
77076;SDS011;66003;52.286;104.306;2024-01-07T17:28:18;2.63;;;2.17;;
77076;SDS011;66003;52.286;104.306;2024-01-07T17:30:45;6.63;;;5.63;;
77076;SDS011;66003;52.286;104.306;2024-01-07T17:33:12;3.42;;;2.70;;
77076;SDS011;66003;52.286;104.306;2024-01-07T17:35:39;7.15;;;4.65;;
77076;SDS011;66003;52.286;104.306;2024-01-07T17:38:05;7.00;;;3.78;;
77076;SDS011;66003;52.286;104.306;2024-01-07T17:40:31;7.15;;;5.28;;
77076;SDS011;66003;52.286;104.306;2024-01-07T17:42:58;7.57;;;4.15;;
77076;SDS011;66003;52.286;104.306;2024-01-07T17:45:25;2.80;;;2.58;;
77076;SDS011;66003;52.286;104.306;2024-01-07T17:47:52;8.43;;;4.68;;
77076;SDS011;66003;52.286;104.306;2024-01-07T17:50:18;4.57;;;2.85;;
77076;SDS011;66003;52.286;104.306;2024-01-07T17:52:45;15.05;;;7.78;;
77076;SDS011;66003;52.286;104.306;2024-01-07T17:55:11;8.75;;;4.68;;
77076;SDS011;66003;52.286;104.306;2024-01-07T17:57:37;12.43;;;6.20;;
77076;SDS011;66003;52.286;104.306;2024-01-07T18:00:03;4.60;;;2.75;;
77076;SDS011;66003;52.286;104.306;2024-01-07T18:04:58;1.95;;;1.85;;
77076;SDS011;66003;52.286;104.306;2024-01-07T18:07:24;1.52;;;1.50;;
77076;SDS011;66003;52.286;104.306;2024-01-07T18:09:50;12.20;;;6.22;;
77076;SDS011;66003;52.286;104.306;2024-01-07T18:12:18;4.72;;;3.13;;
77076;SDS011;66003;52.286;104.306;2024-01-07T18:14:44;13.23;;;4.45;;
77076;SDS011;66003;52.286;104.306;2024-01-07T18:17:10;13.45;;;7.05;;
77076;SDS011;66003;52.286;104.306;2024-01-07T18:19:37;11.48;;;6.35;;
77076;SDS011;66003;52.286;104.306;2024-01-07T18:22:04;6.53;;;3.08;;
77076;SDS011;66003;52.286;104.306;2024-01-07T18:24:30;11.77;;;7.28;;
77076;SDS011;66003;52.286;104.306;2024-01-07T18:26:57;3.80;;;3.53;;
77076;SDS011;66003;52.286;104.306;2024-01-07T18:29:23;5.80;;;5.40;;
77076;SDS011;66003;52.286;104.306;2024-01-07T18:31:50;3.78;;;1.88;;
77076;SDS011;66003;52.286;104.306;2024-01-07T18:34:19;1.85;;;1.75;;
77076;SDS011;66003;52.286;104.306;2024-01-07T18:36:45;5.53;;;3.30;;
77076;SDS011;66003;52.286;104.306;2024-01-07T18:39:13;8.43;;;7.60;;
77076;SDS011;66003;52.286;104.306;2024-01-07T18:41:39;9.18;;;3.50;;
77076;SDS011;66003;52.286;104.306;2024-01-07T18:44:05;7.93;;;6.30;;
77076;SDS011;66003;52.286;104.306;2024-01-07T18:46:32;11.63;;;4.60;;
77076;SDS011;66003;52.286;104.306;2024-01-07T18:48:58;5.22;;;3.20;;
77076;SDS011;66003;52.286;104.306;2024-01-07T18:51:25;3.10;;;2.63;;
77076;SDS011;66003;52.286;104.306;2024-01-07T18:53:51;7.82;;;2.90;;
77076;SDS011;66003;52.286;104.306;2024-01-07T18:56:20;2.40;;;1.90;;
77076;SDS011;66003;52.286;104.306;2024-01-07T18:58:46;6.60;;;3.10;;
77076;SDS011;66003;52.286;104.306;2024-01-07T19:01:13;6.45;;;4.07;;
77076;SDS011;66003;52.286;104.306;2024-01-07T19:03:39;7.97;;;3.78;;
77076;SDS011;66003;52.286;104.306;2024-01-07T19:06:05;13.93;;;6.20;;
77076;SDS011;66003;52.286;104.306;2024-01-07T19:08:31;5.55;;;4.75;;
77076;SDS011;66003;52.286;104.306;2024-01-07T19:10:57;7.00;;;3.22;;
77076;SDS011;66003;52.286;104.306;2024-01-07T19:13:23;4.57;;;3.13;;